createdAt,value
2023-03-11T00:01:15.963Z,7.20
2023-03-11T00:04:28.026Z,6.40
2023-03-11T00:07:40.870Z,6.55
2023-03-11T00:10:55.688Z,8.83
2023-03-11T00:14:07.859Z,7.05
2023-03-11T00:17:19.864Z,9.70
2023-03-11T00:20:35.022Z,7.15
2023-03-11T00:23:46.957Z,8.30
2023-03-11T00:27:02.527Z,7.30
2023-03-11T00:30:20.311Z,7.13
2023-03-11T00:33:32.868Z,5.85
2023-03-11T00:36:45.373Z,7.73
2023-03-11T00:39:57.437Z,7.13
2023-03-11T00:43:09.992Z,6.00
2023-03-11T00:46:22.291Z,6.18
2023-03-11T00:49:34.508Z,7.35
2023-03-11T00:52:46.900Z,9.15
2023-03-11T00:55:59.123Z,7.00
2023-03-11T00:59:11.445Z,5.25
2023-03-11T01:02:23.766Z,7.50
2023-03-11T01:05:39.098Z,6.80
2023-03-11T01:08:51.435Z,6.18
2023-03-11T01:12:03.693Z,6.15
2023-03-11T01:15:21.416Z,6.75
2023-03-11T01:18:33.990Z,8.20
2023-03-11T01:21:47.156Z,7.30
2023-03-11T01:24:59.427Z,6.95
2023-03-11T01:28:12.828Z,7.50
2023-03-11T01:31:25.216Z,6.68
2023-03-11T01:34:37.733Z,7.28
2023-03-11T01:37:50.405Z,6.55
2023-03-11T01:41:02.814Z,8.03
2023-03-11T01:44:17.586Z,5.55
2023-03-11T01:47:45.712Z,7.93
2023-03-11T01:50:58.377Z,7.25
2023-03-11T01:54:14.896Z,4.63
2023-03-11T01:57:28.315Z,6.05
2023-03-11T02:00:42.003Z,3.90
2023-03-11T02:03:55.202Z,4.85
2023-03-11T02:07:08.574Z,2.93
2023-03-11T02:10:22.269Z,3.08
2023-03-11T02:13:35.424Z,4.53
2023-03-11T02:16:47.828Z,2.05
2023-03-11T02:20:19.147Z,1.80
2023-03-11T02:23:37.674Z,3.15
2023-03-11T02:27:00.477Z,2.55
2023-03-11T02:30:18.985Z,3.00
2023-03-11T02:33:34.538Z,4.15
2023-03-11T02:36:49.100Z,2.00
2023-03-11T02:40:17.624Z,1.65
2023-03-11T02:43:37.946Z,2.28
2023-03-11T02:46:51.008Z,1.05
2023-03-11T02:50:04.237Z,1.70
2023-03-11T02:53:17.224Z,1.05
2023-03-11T02:56:29.448Z,1.28
2023-03-11T02:59:44.568Z,2.75
2023-03-11T03:02:58.978Z,1.53
2023-03-11T03:06:13.058Z,2.40
2023-03-11T03:09:25.332Z,2.55
2023-03-11T03:12:37.947Z,0.90
2023-03-11T03:15:50.138Z,8.25
2023-03-11T03:19:02.502Z,0.80
2023-03-11T03:22:14.977Z,0.63
2023-03-11T03:25:27.785Z,0.65
2023-03-11T03:28:40.743Z,1.85
2023-03-11T03:31:53.485Z,1.25
2023-03-11T03:35:07.148Z,4.23
2023-03-11T03:38:24.118Z,1.33
2023-03-11T03:41:37.656Z,0.58
2023-03-11T03:44:50.674Z,1.00
2023-03-11T03:48:03.898Z,1.95
2023-03-11T03:51:19.790Z,0.88
2023-03-11T03:54:34.104Z,2.10
2023-03-11T03:57:47.385Z,1.05
2023-03-11T04:01:05.099Z,0.88
2023-03-11T04:04:18.044Z,1.20
2023-03-11T04:07:30.707Z,2.58
2023-03-11T04:10:43.175Z,1.55
2023-03-11T04:13:55.532Z,1.38
2023-03-11T04:17:07.734Z,2.28
2023-03-11T04:20:21.232Z,1.33
2023-03-11T04:23:34.600Z,1.88
2023-03-11T04:26:47.733Z,1.68
2023-03-11T04:30:01.337Z,1.05
2023-03-11T04:33:14.963Z,1.55
2023-03-11T04:36:27.483Z,1.73
2023-03-11T04:39:40.034Z,3.93
2023-03-11T04:42:53.922Z,3.45
2023-03-11T04:46:10.582Z,1.63
2023-03-11T04:49:23.594Z,3.75
2023-03-11T04:52:36.392Z,2.10
2023-03-11T04:55:48.910Z,2.33
2023-03-11T04:59:01.211Z,2.78
2023-03-11T05:02:14.138Z,2.30
2023-03-11T05:05:28.198Z,1.40
2023-03-11T05:08:40.700Z,2.13
2023-03-11T05:11:54.454Z,1.68
2023-03-11T05:15:07.281Z,3.45
2023-03-11T05:18:19.703Z,4.63
2023-03-11T05:21:33.041Z,2.05
2023-03-11T05:24:47.065Z,1.58
2023-03-11T05:27:59.686Z,2.88
2023-03-11T05:31:16.885Z,2.08
2023-03-11T05:34:29.855Z,1.28
2023-03-11T05:37:42.656Z,1.20
2023-03-11T05:40:55.273Z,1.60
2023-03-11T05:44:07.572Z,2.20
2023-03-11T05:47:20.056Z,1.20
2023-03-11T05:50:32.914Z,1.08
2023-03-11T05:53:48.684Z,1.18
2023-03-11T05:57:03.017Z,2.10
2023-03-11T06:00:20.610Z,1.65
2023-03-11T06:03:33.547Z,1.60
2023-03-11T06:06:46.585Z,1.23
2023-03-11T06:09:59.770Z,1.53
2023-03-11T06:13:11.972Z,1.30
2023-03-11T06:16:26.458Z,1.20
2023-03-11T06:19:39.407Z,1.15
2023-03-11T06:22:53.987Z,4.05
2023-03-11T06:26:11.088Z,0.88
2023-03-11T06:29:26.813Z,1.45
2023-03-11T06:32:39.471Z,1.43
2023-03-11T06:36:02.241Z,1.40
2023-03-11T06:39:18.648Z,1.18
2023-03-11T06:42:32.594Z,3.78
2023-03-11T06:45:45.062Z,1.23
2023-03-11T06:48:58.398Z,2.05
2023-03-11T06:52:11.750Z,1.28
2023-03-11T06:55:25.388Z,1.08
2023-03-11T06:58:39.932Z,1.90
2023-03-11T07:01:52.428Z,1.98
2023-03-11T07:05:05.262Z,2.25
2023-03-11T07:08:17.637Z,3.10
2023-03-11T07:11:32.249Z,2.10
2023-03-11T07:14:46.162Z,1.40
2023-03-11T07:17:58.523Z,1.55
2023-03-11T07:21:12.755Z,2.10
2023-03-11T07:24:25.169Z,2.80
2023-03-11T07:27:37.479Z,1.78
2023-03-11T07:30:49.744Z,2.25
2023-03-11T07:34:03.282Z,1.85
2023-03-11T07:37:15.561Z,3.48
2023-03-11T07:40:27.961Z,3.43
2023-03-11T07:43:40.477Z,3.03
2023-03-11T07:46:52.873Z,2.13
2023-03-11T07:50:05.068Z,1.93
2023-03-11T07:53:17.286Z,1.95
2023-03-11T07:56:31.249Z,1.95
2023-03-11T07:59:43.564Z,2.00
2023-03-11T08:02:55.940Z,1.40
2023-03-11T08:06:10.721Z,2.48
2023-03-11T08:09:23.044Z,1.75
2023-03-11T08:12:34.973Z,1.70
2023-03-11T08:15:47.086Z,2.88
2023-03-11T08:19:00.345Z,1.88
2023-03-11T08:22:13.071Z,2.08
2023-03-11T08:25:25.424Z,1.58
2023-03-11T08:28:37.591Z,1.73
2023-03-11T08:31:49.703Z,2.65
2023-03-11T08:35:01.799Z,2.10
2023-03-11T08:38:14.413Z,4.60
2023-03-11T08:41:27.125Z,3.45
2023-03-11T08:44:39.607Z,4.70
2023-03-11T08:47:51.808Z,2.68
2023-03-11T08:51:04.135Z,3.00
2023-03-11T08:54:16.372Z,2.35
2023-03-11T08:57:28.579Z,3.10
2023-03-11T09:00:41.019Z,3.10
2023-03-11T09:03:53.711Z,2.28
2023-03-11T09:07:05.811Z,2.93
2023-03-11T09:10:20.589Z,2.98
2023-03-11T09:13:33.204Z,2.45
2023-03-11T09:16:45.702Z,2.70
2023-03-11T09:19:58.073Z,3.10
2023-03-11T09:23:10.590Z,3.83
2023-03-11T09:26:23.466Z,2.93
2023-03-11T09:29:36.472Z,2.33
2023-03-11T09:32:48.709Z,3.10
2023-03-11T09:36:00.975Z,2.83
2023-03-11T09:39:13.576Z,3.15
2023-03-11T09:42:32.275Z,4.48
2023-03-11T09:45:49.325Z,3.85
2023-03-11T09:52:19.954Z,3.68
2023-03-11T09:55:51.339Z,3.40
2023-03-11T09:59:07.257Z,4.20
2023-03-11T10:02:26.741Z,3.60
2023-03-11T10:05:39.405Z,4.33
2023-03-11T10:08:59.361Z,4.98
2023-03-11T10:12:21.432Z,4.08
2023-03-11T10:15:42.945Z,3.88
2023-03-11T10:19:04.398Z,6.00
2023-03-11T10:22:25.274Z,5.00
2023-03-11T10:25:45.227Z,4.40
2023-03-11T10:29:02.620Z,4.15
2023-03-11T10:32:20.576Z,4.23
2023-03-11T10:35:40.810Z,4.40
2023-03-11T10:38:56.318Z,3.58
2023-03-11T10:42:13.638Z,4.60
2023-03-11T10:45:27.566Z,3.53
2023-03-11T10:48:40.401Z,3.60
2023-03-11T10:51:57.319Z,3.65
2023-03-11T10:55:11.344Z,4.65
2023-03-11T10:58:27.225Z,3.73
2023-03-11T11:01:39.452Z,3.40
2023-03-11T11:04:51.903Z,4.50
2023-03-11T11:08:16.088Z,4.20
2023-03-11T11:11:31.996Z,5.38
2023-03-11T11:14:56.588Z,4.78
2023-03-11T11:18:16.381Z,4.58
2023-03-11T11:21:38.462Z,6.15
2023-03-11T11:24:55.573Z,5.38
2023-03-11T11:28:14.561Z,3.63
2023-03-11T11:31:32.318Z,5.13
2023-03-11T11:34:45.534Z,5.58
2023-03-11T11:38:02.571Z,5.73
2023-03-11T11:44:33.566Z,4.65
2023-03-11T11:47:50.488Z,4.75
2023-03-11T11:51:06.557Z,4.68
2023-03-11T11:54:25.593Z,4.53
2023-03-11T11:57:38.341Z,5.10
2023-03-11T12:01:07.026Z,5.23
2023-03-11T12:04:54.865Z,5.35
2023-03-11T12:08:17.529Z,5.80
2023-03-11T12:11:36.686Z,5.73
2023-03-11T12:14:53.814Z,4.45
2023-03-11T12:18:11.345Z,5.18
2023-03-11T12:21:33.700Z,4.83
2023-03-11T12:25:01.422Z,5.25
2023-03-11T12:28:26.108Z,5.45
2023-03-11T12:31:42.982Z,4.63
2023-03-11T12:34:55.392Z,5.38
2023-03-11T12:38:25.412Z,5.23
2023-03-11T12:41:42.954Z,6.90
2023-03-11T12:44:57.556Z,4.83
2023-03-11T12:48:50.477Z,7.45
2023-03-11T12:52:26.492Z,4.33
2023-03-11T12:55:42.114Z,4.68
2023-03-11T12:59:18.912Z,6.30
2023-03-11T13:02:52.299Z,6.20
2023-03-11T13:06:17.972Z,5.45
2023-03-11T13:09:32.165Z,5.25
2023-03-11T13:12:50.807Z,4.35
2023-03-11T13:16:05.206Z,5.00
2023-03-11T13:19:56.273Z,5.75
2023-03-11T13:23:40.887Z,3.45
2023-03-11T13:26:56.767Z,4.38
2023-03-11T13:30:17.282Z,3.93
2023-03-11T13:33:55.768Z,4.15
2023-03-11T13:37:25.391Z,5.35
2023-03-11T13:40:42.823Z,5.43
2023-03-11T13:43:57.342Z,5.18
2023-03-11T13:47:16.288Z,7.08
2023-03-11T13:50:34.699Z,7.33
2023-03-11T13:53:51.971Z,5.88
2023-03-11T13:57:07.439Z,7.50
2023-03-11T14:00:28.666Z,6.20
2023-03-11T14:03:48.701Z,5.40
2023-03-11T14:07:01.524Z,6.23
2023-03-11T14:10:39.676Z,5.25
2023-03-11T14:13:55.337Z,5.00
2023-03-11T14:17:09.698Z,5.55
2023-03-11T14:20:25.360Z,5.13
2023-03-11T14:23:44.193Z,4.28
2023-03-11T14:26:57.905Z,5.70
2023-03-11T14:30:11.964Z,4.40
2023-03-11T14:33:28.569Z,6.13
2023-03-11T14:36:54.390Z,4.20
2023-03-11T14:40:07.971Z,7.85
2023-03-11T14:43:20.724Z,6.80
2023-03-11T14:46:35.835Z,5.13
2023-03-11T14:49:48.293Z,4.65
2023-03-11T14:53:04.942Z,4.83
2023-03-11T14:56:23.061Z,4.60
2023-03-11T14:59:38.168Z,6.15
2023-03-11T15:03:03.141Z,4.53
2023-03-11T15:06:19.367Z,4.50
2023-03-11T15:09:32.920Z,4.20
2023-03-11T15:12:50.033Z,5.25
2023-03-11T15:19:38.676Z,4.38
2023-03-11T15:22:51.429Z,7.43
2023-03-11T15:26:04.322Z,5.48
2023-03-11T15:29:23.142Z,6.08
2023-03-11T15:32:48.949Z,5.83
2023-03-11T15:36:01.543Z,6.15
2023-03-11T15:39:29.033Z,7.13
2023-03-11T15:45:53.621Z,6.68
2023-03-11T15:49:05.866Z,6.25
2023-03-11T15:52:19.371Z,7.83
2023-03-11T15:55:33.449Z,6.98
2023-03-11T15:58:46.066Z,7.88
2023-03-11T16:01:59.625Z,7.80
2023-03-11T16:05:21.690Z,7.25
2023-03-11T16:08:34.885Z,10.50
2023-03-11T16:11:48.495Z,9.90
2023-03-11T16:15:00.755Z,10.40
2023-03-11T16:18:14.755Z,9.68
2023-03-11T16:21:32.068Z,7.93
2023-03-11T16:24:44.552Z,8.78
2023-03-11T16:28:00.025Z,10.73
2023-03-11T16:31:13.685Z,9.38
2023-03-11T16:34:26.464Z,9.80
2023-03-11T16:37:39.056Z,8.88
2023-03-11T16:40:51.640Z,9.05
2023-03-11T16:44:03.764Z,10.63
2023-03-11T16:47:16.080Z,9.13
2023-03-11T16:50:29.062Z,10.40
2023-03-11T16:53:41.959Z,10.85
2023-03-11T16:56:55.053Z,13.28
2023-03-11T17:00:10.032Z,13.50
2023-03-11T17:03:27.574Z,15.00
2023-03-11T17:06:40.511Z,12.10
2023-03-11T17:09:52.744Z,15.05
2023-03-11T17:13:05.280Z,12.48
2023-03-11T17:16:19.280Z,13.33
2023-03-11T17:19:33.600Z,11.78
2023-03-11T17:22:47.698Z,13.08
2023-03-11T17:26:01.709Z,9.95
2023-03-11T17:29:15.284Z,10.23
2023-03-11T17:32:31.396Z,9.80
2023-03-11T17:35:44.882Z,11.75
2023-03-11T17:39:00.337Z,7.80
2023-03-11T17:42:14.086Z,8.20
2023-03-11T17:45:26.451Z,8.48
2023-03-11T17:48:38.714Z,8.75
2023-03-11T17:51:51.259Z,8.13
2023-03-11T17:55:03.858Z,11.13
2023-03-11T17:58:16.193Z,8.63
2023-03-11T18:01:31.812Z,11.48
2023-03-11T18:04:46.055Z,8.38
2023-03-11T18:07:59.490Z,8.83
2023-03-11T18:11:18.868Z,8.65
2023-03-11T18:14:32.760Z,11.15
2023-03-11T18:17:45.901Z,9.48
2023-03-11T18:20:58.571Z,10.45
2023-03-11T18:24:12.962Z,5.78
2023-03-11T18:27:25.316Z,6.65
2023-03-11T18:30:38.029Z,5.65
2023-03-11T18:33:53.669Z,7.55
2023-03-11T18:37:05.997Z,5.10
2023-03-11T18:40:21.434Z,5.68
2023-03-11T18:43:34.444Z,6.63
2023-03-11T18:46:47.089Z,5.98
2023-03-11T18:49:59.202Z,7.73
2023-03-11T18:53:12.076Z,6.03
2023-03-11T18:56:25.687Z,7.95
2023-03-11T18:59:38.311Z,8.38
2023-03-11T19:02:50.610Z,7.38
2023-03-11T19:06:03.705Z,9.40
2023-03-11T19:09:16.565Z,9.10
2023-03-11T19:12:30.871Z,9.20
2023-03-11T19:15:46.430Z,12.23
2023-03-11T19:18:59.167Z,8.23
2023-03-11T19:22:11.493Z,10.33
2023-03-11T19:25:27.536Z,13.30
2023-03-11T19:28:40.165Z,10.65
2023-03-11T19:31:52.562Z,13.78
2023-03-11T19:35:04.559Z,10.75
2023-03-11T19:38:16.655Z,12.45
2023-03-11T19:41:28.687Z,8.23
2023-03-11T19:44:40.891Z,10.05
2023-03-11T19:47:53.006Z,10.68
2023-03-11T19:51:05.847Z,11.30
2023-03-11T19:54:19.443Z,11.48
2023-03-11T19:57:31.639Z,10.50
2023-03-11T20:00:45.688Z,9.55
2023-03-11T20:03:59.499Z,14.03
2023-03-11T20:07:12.193Z,10.13
2023-03-11T20:10:25.183Z,11.13
2023-03-11T20:13:41.269Z,11.63
2023-03-11T20:16:54.011Z,10.75
2023-03-11T20:20:06.595Z,11.75
2023-03-11T20:23:19.438Z,11.55
2023-03-11T20:26:32.292Z,11.58
2023-03-11T20:29:44.969Z,12.13
2023-03-11T20:36:26.775Z,18.33
2023-03-11T20:39:39.193Z,15.40
2023-03-11T20:42:51.835Z,12.93
2023-03-11T20:46:05.764Z,15.25
2023-03-11T20:49:18.700Z,14.73
2023-03-11T20:52:33.359Z,16.40
2023-03-11T20:55:48.037Z,15.08
2023-03-11T20:59:02.972Z,16.18
2023-03-11T21:05:46.162Z,15.48
2023-03-11T21:09:02.414Z,11.70
2023-03-11T21:12:15.850Z,12.38
2023-03-11T21:15:28.748Z,14.20
2023-03-11T21:18:54.381Z,12.10
2023-03-11T21:22:19.660Z,15.15
2023-03-11T21:25:42.888Z,14.30
2023-03-11T21:28:55.345Z,14.60
2023-03-11T21:32:19.590Z,12.15
2023-03-11T21:39:14.674Z,13.83
2023-03-11T21:53:30.956Z,16.35
2023-03-11T22:18:45.612Z,22.20
2023-03-11T22:21:57.701Z,17.68
2023-03-11T22:25:15.067Z,21.00
2023-03-11T22:28:40.466Z,19.50
2023-03-11T22:32:00.151Z,18.03
2023-03-11T22:42:19.994Z,21.33
2023-03-11T22:45:32.319Z,16.30
2023-03-11T22:48:57.432Z,17.48
2023-03-11T22:52:23.131Z,17.25
2023-03-11T22:59:27.895Z,16.30
2023-03-11T23:06:23.131Z,18.55
2023-03-11T23:09:35.292Z,20.08
2023-03-11T23:16:31.445Z,15.78
2023-03-11T23:30:59.309Z,19.55
2023-03-11T23:37:55.293Z,19.23
2023-03-11T23:52:41.330Z,23.70
